ADDS TAF Board (Experimental) INFO Settings
IDs: Format: Expanded Condensed

KDFW - Dallas-Ft Worth Intl, TX, US

Issued at 0300 UTC 30 Sep 2016
Updated at 0309 UTC 30 Sep 2016
Time0253Z 30/04Z 30/05Z 30/06Z 30/07Z 30/08Z 30/09Z 30/10Z 30/11Z 30/12Z 30/13Z 30/14Z 30/15Z 30/16Z
Type OBS PRVL PRVL PRVL PRVL PRVL PRVL PRVL PRVL PRVL PRVL PRVL PRVL PRVL
VIS 10 >6 >6 >6 >6 >6 >6 >6 >6 >6 >6 >6 >6 >6
CIG -- -- -- -- -- -- -- -- -- -- -- -- -- --
Cover CLR FEW FEW FEW FEW FEW FEW FEW FEW FEW FEW FEW FEW FEW
FltCat VFR VFR VFR VFR VFR VFR VFR VFR VFR VFR VFR VFR VFR VFR
WX -- -- -- -- -- -- -- -- -- -- -- -- -- --
WDir 20 10 10 10 10 10 10 10 10 10 10 10 10 10
WSpd 7 10 10 10 10 10 10 10 10 10 10 10 10 10
WGst -- -- -- -- -- -- -- -- -- -- -- -- -- --
R13/31
XWnd 6 8 8 8 8 8 8 8 8 8 8 8 8 8
HWnd -3 -6 -6 -6 -6 -6 -6 -6 -6 -6 -6 -6 -6 -6
R17/35
XWnd 2 2 2 2 2 2 2 2 2 2 2 2 2 2
HWnd -7 -10 -10 -10 -10 -10 -10 -10 -10 -10 -10 -10 -10 -10
R18/36
XWnd 2 2 2 2 2 2 2 2 2 2 2 2 2 2
HWnd -7 -10 -10 -10 -10 -10 -10 -10 -10 -10 -10 -10 -10 -10

Raw TAF
KDFW 300300Z 3003/0106 01010KT P6SM FEW300

Raw METAR
KDFW 300253Z 02007KT 10SM CLR 18/11 A3023 RMK AO2 SLP231 T01830106 53007 $
KDFW 300153Z 02007KT 10SM CLR 19/10 A3022 RMK AO2 SLP227 T01890100 $
KDFW 300053Z 01006KT 10SM FEW300 21/09 A3021 RMK AO2 SLP226 T02060089 $

METAR Board
Radar Display
Forecast Discussion

TAF Board Legend

Potential Impact
Threat None Slight Moderate High
Visibility (sm) ≥5.1 5.1>X≥3 3>X≥1 <1
Ceiling (100 ft) ≥30.1 30.1>X≥10 10>X≥5 <5
Wind Speed (kt) <10 10≤X<20 20≤X<30 ≥30
Wind Gust (kt) <15 15≤X<25 25≤X<35 ≥35
Weather No Wx Reported VCTS,-TS,-FZRA,SN TS,FZRA +TS,+FZRA,+SN